createdAt,value
2018-12-18T00:00:42.765Z,14.00
2018-12-18T00:03:13.390Z,7.67
2018-12-18T00:05:44.251Z,16.23
2018-12-18T00:08:14.703Z,9.13
2018-12-18T00:10:46.699Z,11.55
2018-12-18T00:13:18.235Z,8.00
2018-12-18T00:15:51.326Z,9.80
2018-12-18T00:18:23.339Z,9.30
2018-12-18T00:20:53.879Z,10.40
2018-12-18T00:23:24.652Z,10.30
2018-12-18T00:25:55.496Z,9.48
2018-12-18T00:28:26.168Z,9.70
2018-12-18T00:30:56.717Z,10.53
2018-12-18T00:33:27.143Z,10.98
2018-12-18T00:35:57.929Z,7.92
2018-12-18T00:38:28.316Z,6.55
2018-12-18T00:40:58.664Z,9.18
2018-12-18T00:43:29.034Z,9.10
2018-12-18T00:45:59.274Z,9.00
2018-12-18T00:48:29.490Z,10.23
2018-12-18T00:50:59.767Z,9.78
2018-12-18T00:53:29.928Z,11.35
2018-12-18T00:56:00.189Z,5.97
2018-12-18T00:58:30.400Z,10.85
2018-12-18T01:01:00.790Z,10.85
2018-12-18T01:03:31.121Z,8.75
2018-12-18T01:06:01.493Z,16.52
2018-12-18T01:08:31.702Z,7.62
2018-12-18T01:11:03.095Z,7.80
2018-12-18T01:13:33.282Z,6.80
2018-12-18T01:16:10.398Z,11.93
2018-12-18T01:18:40.596Z,11.93
2018-12-18T01:21:10.934Z,8.48
2018-12-18T01:23:41.378Z,10.40
2018-12-18T01:26:11.633Z,10.70
2018-12-18T01:28:41.831Z,8.75
2018-12-18T01:31:12.527Z,8.50
2018-12-18T01:33:42.939Z,16.50
2018-12-18T01:36:13.391Z,10.48
2018-12-18T01:38:43.737Z,9.30
2018-12-18T01:41:14.163Z,7.55
2018-12-18T01:43:44.558Z,10.48
2018-12-18T01:46:15.222Z,13.28
2018-12-18T01:48:45.676Z,8.28
2018-12-18T01:51:16.987Z,12.75
2018-12-18T01:53:47.367Z,11.05
2018-12-18T01:56:18.161Z,9.08
2018-12-18T01:58:48.557Z,11.08
2018-12-18T02:01:18.942Z,11.63
2018-12-18T02:03:49.461Z,9.20
2018-12-18T02:06:19.799Z,9.53
2018-12-18T02:08:50.285Z,12.80
2018-12-18T02:11:20.650Z,9.25
2018-12-18T02:13:50.914Z,10.65
2018-12-18T02:16:21.282Z,12.05
2018-12-18T02:18:51.549Z,11.08
2018-12-18T02:21:22.011Z,10.75
2018-12-18T02:23:52.293Z,10.75
2018-12-18T02:26:22.640Z,11.65
2018-12-18T02:28:53.989Z,9.90
2018-12-18T02:31:24.545Z,11.30
2018-12-18T02:33:54.865Z,9.83
2018-12-18T02:36:25.742Z,10.25
2018-12-18T02:38:56.025Z,10.32
2018-12-18T02:41:26.182Z,10.45
2018-12-18T02:43:56.591Z,14.13
2018-12-18T02:46:26.766Z,8.73
2018-12-18T02:48:57.026Z,17.77
2018-12-18T02:51:27.278Z,14.25
2018-12-18T02:53:57.676Z,13.65
2018-12-18T02:56:27.999Z,14.50
2018-12-18T02:58:58.219Z,8.83
2018-12-18T03:01:28.392Z,17.75
2018-12-18T03:03:58.610Z,10.10
2018-12-18T03:06:31.055Z,15.65
2018-12-18T03:09:01.252Z,9.15
2018-12-18T03:11:31.468Z,10.45
2018-12-18T03:14:02.145Z,11.35
2018-12-18T03:16:32.326Z,11.88
2018-12-18T03:19:02.570Z,9.90
2018-12-18T03:21:32.790Z,16.60
2018-12-18T03:24:03.191Z,11.25
2018-12-18T03:26:33.332Z,7.83
2018-12-18T03:29:03.944Z,13.98
2018-12-18T03:34:18.404Z,12.70
2018-12-18T03:36:49.280Z,7.90
2018-12-18T03:39:19.869Z,15.98
2018-12-18T03:41:50.319Z,15.88
2018-12-18T03:44:24.361Z,9.58
2018-12-18T03:46:55.093Z,12.40
2018-12-18T03:49:25.626Z,11.73
2018-12-18T03:51:56.141Z,9.88
2018-12-18T03:54:26.770Z,17.98
2018-12-18T03:56:57.262Z,14.68
2018-12-18T03:59:27.831Z,9.50
2018-12-18T04:18:33.545Z,8.85
2018-12-18T04:21:04.110Z,17.12
2018-12-18T04:23:34.437Z,13.55
2018-12-18T04:26:05.204Z,11.53
2018-12-18T04:28:35.731Z,11.65
2018-12-18T04:31:06.324Z,14.33
2018-12-18T04:33:37.174Z,9.43
2018-12-18T04:36:07.477Z,13.55
2018-12-18T04:38:37.812Z,12.60
2018-12-18T04:41:08.159Z,13.40
2018-12-18T04:43:38.861Z,11.15
2018-12-18T04:46:09.306Z,12.85
2018-12-18T04:48:39.925Z,13.90
2018-12-18T04:51:10.331Z,14.33
2018-12-18T04:53:40.672Z,14.58
2018-12-18T04:56:10.991Z,16.45
2018-12-18T04:58:41.530Z,13.43
2018-12-18T05:01:11.962Z,12.47
2018-12-18T05:03:42.298Z,11.45
2018-12-18T05:06:12.613Z,12.05
2018-12-18T05:08:42.943Z,16.52
2018-12-18T05:11:13.785Z,19.10
2018-12-18T05:13:44.494Z,12.43
2018-12-18T05:16:14.819Z,12.93
2018-12-18T05:18:45.693Z,15.15
2018-12-18T05:21:16.281Z,24.57
2018-12-18T05:23:47.015Z,12.13
2018-12-18T05:26:17.346Z,14.60
2018-12-18T05:28:47.683Z,14.45
2018-12-18T05:31:18.085Z,13.25
2018-12-18T05:33:48.615Z,11.55
2018-12-18T05:36:19.102Z,24.00
2018-12-18T05:38:49.686Z,14.07
2018-12-18T05:41:20.521Z,18.57
2018-12-18T05:43:51.291Z,9.58
2018-12-18T05:46:22.107Z,10.18
2018-12-18T05:48:52.944Z,13.35
2018-12-18T05:51:23.718Z,15.30
2018-12-18T05:53:54.595Z,15.60
2018-12-18T05:56:25.237Z,11.22
2018-12-18T05:58:56.101Z,12.03
2018-12-18T06:01:26.911Z,12.18
2018-12-18T06:03:59.131Z,11.53
2018-12-18T06:06:29.955Z,11.65
2018-12-18T06:09:01.094Z,16.12
2018-12-18T06:11:31.581Z,16.52
2018-12-18T06:14:02.493Z,15.83
2018-12-18T06:16:34.969Z,11.55
2018-12-18T06:19:06.278Z,19.05
2018-12-18T06:21:37.147Z,18.35
2018-12-18T06:24:08.253Z,11.53
2018-12-18T06:26:39.574Z,13.68
2018-12-18T06:29:11.110Z,16.35
2018-12-18T06:31:41.650Z,28.55
2018-12-18T06:34:12.735Z,16.95
2018-12-18T06:36:44.567Z,13.48
2018-12-18T06:39:15.666Z,17.15
2018-12-18T06:41:47.072Z,11.83
2018-12-18T06:44:18.410Z,18.23
2018-12-18T06:46:51.298Z,18.00
2018-12-18T06:49:22.522Z,13.60
2018-12-18T06:51:53.027Z,16.23
2018-12-18T06:54:24.124Z,14.18
2018-12-18T06:56:54.730Z,16.87
2018-12-18T06:59:25.220Z,19.80
2018-12-18T07:01:57.659Z,15.40
2018-12-18T07:04:28.576Z,17.00
2018-12-18T07:06:59.637Z,17.30
2018-12-18T07:09:30.958Z,14.63
2018-12-18T07:12:02.013Z,16.30
2018-12-18T07:14:32.968Z,22.02
2018-12-18T07:17:03.515Z,16.30
2018-12-18T07:19:33.918Z,13.28
2018-12-18T07:22:04.374Z,19.15
2018-12-18T07:24:34.799Z,20.55
2018-12-18T07:27:05.353Z,13.18
2018-12-18T07:29:38.229Z,15.93
2018-12-18T07:32:10.166Z,19.57
2018-12-18T07:34:40.623Z,18.02
2018-12-18T07:37:11.200Z,16.05
2018-12-18T07:39:41.740Z,16.23
2018-12-18T07:42:12.009Z,21.12
2018-12-18T07:44:42.466Z,18.35
2018-12-18T07:47:12.813Z,18.02
2018-12-18T07:49:43.570Z,16.48
2018-12-18T07:52:14.008Z,18.98
2018-12-18T07:54:44.587Z,17.70
2018-12-18T07:57:14.986Z,17.65
2018-12-18T07:59:45.727Z,25.48
2018-12-18T08:02:16.123Z,22.65
2018-12-18T08:04:46.742Z,17.48
2018-12-18T08:07:17.151Z,14.83
2018-12-18T08:09:47.550Z,20.05
2018-12-18T08:15:10.148Z,16.20
2018-12-18T08:17:40.570Z,18.85
2018-12-18T08:20:11.125Z,19.75
2018-12-18T08:22:41.697Z,22.27
2018-12-18T08:25:12.081Z,20.50
2018-12-18T08:27:42.563Z,21.17
2018-12-18T08:30:17.072Z,16.73
2018-12-18T08:32:47.831Z,23.02
2018-12-18T08:35:18.230Z,16.93
2018-12-18T08:37:48.895Z,21.55
2018-12-18T08:40:19.430Z,18.35
2018-12-18T08:42:49.864Z,25.00
2018-12-18T08:45:20.288Z,24.85
2018-12-18T08:47:50.904Z,22.67
2018-12-18T08:50:21.401Z,19.30
2018-12-18T08:52:51.795Z,18.12
2018-12-18T08:55:22.357Z,27.50
2018-12-18T08:57:52.865Z,21.25
2018-12-18T09:00:23.339Z,22.20
2018-12-18T09:02:53.904Z,23.18
2018-12-18T09:05:24.484Z,23.87
2018-12-18T09:07:54.841Z,24.25
2018-12-18T09:10:25.417Z,28.95
2018-12-18T09:12:55.696Z,24.55
2018-12-18T09:15:31.613Z,25.90
2018-12-18T09:18:01.913Z,24.80
2018-12-18T09:20:32.289Z,28.52
2018-12-18T09:23:03.053Z,25.35
2018-12-18T09:25:33.510Z,25.68
2018-12-18T09:28:04.063Z,34.85
2018-12-18T09:30:35.630Z,20.08
2018-12-18T09:33:06.733Z,23.40
2018-12-18T09:35:37.279Z,30.65
2018-12-18T09:38:13.333Z,20.97
2018-12-18T09:40:49.163Z,20.65
2018-12-18T09:43:25.272Z,23.70
2018-12-18T09:45:55.888Z,24.43
2018-12-18T09:48:26.494Z,24.90
2018-12-18T09:50:56.974Z,22.60
2018-12-18T09:53:27.599Z,20.02
2018-12-18T09:55:58.151Z,18.05
2018-12-18T09:58:28.577Z,20.32
2018-12-18T10:00:59.337Z,19.23
2018-12-18T10:03:33.557Z,17.77
2018-12-18T10:06:02.466Z,19.85
2018-12-18T10:08:32.798Z,23.57
2018-12-18T10:11:03.785Z,21.77
2018-12-18T10:13:34.361Z,19.70
2018-12-18T10:16:04.806Z,14.60
2018-12-18T10:18:35.130Z,22.65
2018-12-18T10:21:05.461Z,17.10
2018-12-18T10:23:36.010Z,15.58
2018-12-18T10:26:06.543Z,19.75
2018-12-18T10:28:37.004Z,20.68
2018-12-18T10:31:07.298Z,16.50
2018-12-18T10:33:37.682Z,17.80
2018-12-18T10:36:08.081Z,22.20
2018-12-18T10:38:38.888Z,15.23
2018-12-18T10:41:09.478Z,24.57
2018-12-18T10:43:39.917Z,18.30
2018-12-18T10:46:10.379Z,15.35
2018-12-18T10:48:41.086Z,14.65
2018-12-18T10:51:11.830Z,15.63
2018-12-18T10:53:42.637Z,20.92
2018-12-18T10:56:13.278Z,19.25
2018-12-18T10:58:54.659Z,12.55
2018-12-18T11:01:30.970Z,23.27
2018-12-18T11:04:01.489Z,19.27
2018-12-18T11:06:32.194Z,12.45
2018-12-18T11:09:05.551Z,15.35
2018-12-18T11:11:36.193Z,14.28
2018-12-18T11:14:07.274Z,10.72
2018-12-18T11:16:38.126Z,12.33
2018-12-18T11:19:08.668Z,17.77
2018-12-18T11:21:39.333Z,20.05
2018-12-18T11:24:10.084Z,15.98
2018-12-18T11:26:40.641Z,10.05
2018-12-18T11:29:11.344Z,13.43
2018-12-18T11:31:41.681Z,11.97
2018-12-18T11:34:12.185Z,11.00
2018-12-18T11:36:43.263Z,11.40
2018-12-18T11:39:14.168Z,12.75
2018-12-18T11:41:44.760Z,13.10
2018-12-18T11:44:15.219Z,13.88
2018-12-18T11:46:45.789Z,9.55
2018-12-18T11:49:16.444Z,12.23
2018-12-18T11:51:46.933Z,17.17
2018-12-18T11:54:17.476Z,11.53
2018-12-18T11:56:48.050Z,12.00
2018-12-18T11:59:18.477Z,19.27
2018-12-18T12:01:49.119Z,13.83
2018-12-18T12:04:19.589Z,18.95
2018-12-18T12:06:50.089Z,10.28
2018-12-18T12:09:20.955Z,16.42
2018-12-18T12:11:52.294Z,23.22
2018-12-18T12:14:23.355Z,13.68
2018-12-18T12:16:53.945Z,12.73
2018-12-18T12:19:24.349Z,10.58
2018-12-18T12:21:55.221Z,10.65
2018-12-18T12:24:25.815Z,12.15
2018-12-18T12:29:02.525Z,12.33
2018-12-18T12:31:32.976Z,18.32
2018-12-18T12:34:03.352Z,9.55
2018-12-18T12:36:34.964Z,12.58
2018-12-18T12:39:08.811Z,13.83
2018-12-18T12:41:39.261Z,8.43
2018-12-18T12:44:14.644Z,15.75
2018-12-18T12:46:45.777Z,13.20
2018-12-18T12:49:16.621Z,11.73
2018-12-18T12:51:47.186Z,13.45
2018-12-18T12:54:17.649Z,10.32
2018-12-18T12:56:48.148Z,11.18
2018-12-18T12:59:18.673Z,12.35
2018-12-18T13:01:49.933Z,12.37
2018-12-18T13:04:20.965Z,6.87
2018-12-18T13:06:51.584Z,7.67
2018-12-18T13:09:22.207Z,10.90
2018-12-18T13:11:52.653Z,5.92
2018-12-18T13:14:23.214Z,5.30
2018-12-18T13:16:53.526Z,8.93
2018-12-18T13:19:23.887Z,8.95
2018-12-18T13:21:54.204Z,7.65
2018-12-18T13:24:24.836Z,13.05
2018-12-18T13:26:55.311Z,7.75
2018-12-18T13:29:25.861Z,9.48
2018-12-18T13:31:56.551Z,10.53
2018-12-18T13:34:26.984Z,8.78
2018-12-18T13:36:57.570Z,9.05
2018-12-18T13:39:28.225Z,7.60
2018-12-18T13:41:58.787Z,8.10
2018-12-18T13:44:29.247Z,5.80
2018-12-18T13:46:59.605Z,9.70
2018-12-18T13:49:30.019Z,11.08
2018-12-18T13:52:03.600Z,8.48
2018-12-18T13:54:37.033Z,9.05
2018-12-18T13:57:09.044Z,13.75
2018-12-18T13:59:39.764Z,16.42
2018-12-18T14:02:10.697Z,8.90
2018-12-18T14:04:41.116Z,14.13
2018-12-18T14:07:11.528Z,11.43
2018-12-18T14:09:42.042Z,8.33
2018-12-18T14:12:12.524Z,8.40
2018-12-18T14:14:42.797Z,10.00
2018-12-18T14:17:13.735Z,8.43
2018-12-18T14:19:44.160Z,10.82
2018-12-18T14:22:15.360Z,9.38
2018-12-18T14:24:45.901Z,8.55
2018-12-18T14:27:18.573Z,11.60
2018-12-18T14:29:48.906Z,8.58
2018-12-18T14:32:19.385Z,11.18
2018-12-18T14:34:49.883Z,10.88
2018-12-18T14:37:20.258Z,11.83
2018-12-18T14:39:50.670Z,7.67
2018-12-18T14:42:21.095Z,7.70
2018-12-18T14:44:51.999Z,8.98
2018-12-18T14:47:22.630Z,12.90
2018-12-18T14:49:53.299Z,7.33
2018-12-18T14:52:23.699Z,11.15
2018-12-18T14:54:54.426Z,11.75
2018-12-18T14:57:25.111Z,8.15
2018-12-18T14:59:56.299Z,8.20
2018-12-18T15:02:27.036Z,7.17
2018-12-18T15:04:57.854Z,10.10
2018-12-18T15:07:28.640Z,10.63
2018-12-18T15:09:59.243Z,8.35
2018-12-18T15:12:29.817Z,12.03
2018-12-18T15:15:00.239Z,12.07
2018-12-18T15:17:30.863Z,10.03
2018-12-18T15:20:01.609Z,12.00
2018-12-18T15:22:32.102Z,10.93
2018-12-18T15:25:02.835Z,16.25
2018-12-18T15:27:33.649Z,13.88
2018-12-18T15:30:05.716Z,11.97
2018-12-18T15:32:36.455Z,21.73
2018-12-18T15:35:06.902Z,13.75
2018-12-18T15:37:37.949Z,15.85
2018-12-18T15:40:11.113Z,16.12
2018-12-18T15:42:41.963Z,27.98
2018-12-18T15:45:12.390Z,19.82
2018-12-18T15:47:43.992Z,13.30
2018-12-18T15:50:14.377Z,16.95
2018-12-18T15:52:44.856Z,12.45
2018-12-18T15:55:15.256Z,11.35
2018-12-18T15:57:48.615Z,14.33
2018-12-18T16:00:19.280Z,14.43
2018-12-18T16:02:49.566Z,17.12
2018-12-18T16:05:20.436Z,17.25
2018-12-18T16:07:51.141Z,15.98
2018-12-18T16:10:21.826Z,14.90
2018-12-18T16:12:52.123Z,13.50
2018-12-18T16:15:23.924Z,16.80
2018-12-18T16:17:54.578Z,16.50
2018-12-18T16:20:25.140Z,14.60
2018-12-18T16:22:55.773Z,14.45
2018-12-18T16:25:26.304Z,14.60
2018-12-18T16:27:57.046Z,14.23
2018-12-18T16:30:27.834Z,17.52
2018-12-18T16:32:58.713Z,24.57
2018-12-18T16:35:29.317Z,15.75
2018-12-18T16:37:59.694Z,29.87
2018-12-18T16:40:30.586Z,16.52
2018-12-18T16:43:01.059Z,9.98
2018-12-18T16:45:31.483Z,12.03
2018-12-18T16:48:01.812Z,16.40
2018-12-18T16:50:32.126Z,20.88
2018-12-18T16:53:02.524Z,10.30
2018-12-18T16:55:32.879Z,13.55
2018-12-18T16:58:03.327Z,16.95
2018-12-18T17:00:35.271Z,11.20
2018-12-18T17:03:05.735Z,14.07
2018-12-18T17:05:36.451Z,12.18
2018-12-18T17:08:07.270Z,15.08
2018-12-18T17:10:37.742Z,14.83
2018-12-18T17:13:08.621Z,18.52
2018-12-18T17:15:39.697Z,20.88
2018-12-18T17:18:10.162Z,13.62
2018-12-18T17:20:40.698Z,14.83
2018-12-18T17:23:11.112Z,12.75
2018-12-18T17:25:41.740Z,22.60
2018-12-18T17:28:12.534Z,12.80
2018-12-18T17:30:43.510Z,15.45
2018-12-18T17:33:14.200Z,15.70
2018-12-18T17:35:44.942Z,12.47
2018-12-18T17:38:15.777Z,20.82
2018-12-18T17:40:46.923Z,11.50
2018-12-18T17:43:18.616Z,11.68
2018-12-18T17:45:49.204Z,18.65
2018-12-18T17:48:20.121Z,19.95
2018-12-18T17:50:50.448Z,14.93
2018-12-18T17:53:21.221Z,14.45
2018-12-18T17:55:51.701Z,12.10
2018-12-18T18:14:21.332Z,13.03
2018-12-18T18:16:52.272Z,17.15
2018-12-18T18:19:22.940Z,15.45
2018-12-18T18:21:54.255Z,18.85
2018-12-18T18:24:30.493Z,13.53
2018-12-18T18:27:03.157Z,16.10
2018-12-18T18:29:34.174Z,13.30
2018-12-18T18:32:04.869Z,15.18
2018-12-18T18:34:35.562Z,22.60
2018-12-18T18:37:06.502Z,23.40
2018-12-18T18:39:37.182Z,19.77
2018-12-18T18:42:08.115Z,18.48
2018-12-18T18:44:39.603Z,15.95
2018-12-18T18:47:10.625Z,18.23
2018-12-18T18:49:41.421Z,17.48
2018-12-18T18:52:17.934Z,19.23
2018-12-18T18:54:50.529Z,13.53
2018-12-18T18:57:22.928Z,19.35
2018-12-18T18:59:55.019Z,16.42
2018-12-18T19:02:26.909Z,12.93
2018-12-18T19:04:58.637Z,17.50
2018-12-18T19:07:30.827Z,20.95
2018-12-18T19:10:02.499Z,26.85
2018-12-18T19:12:33.409Z,15.78
2018-12-18T19:15:04.874Z,27.30
2018-12-18T19:20:46.313Z,15.93
2018-12-18T19:23:21.594Z,19.73
2018-12-18T19:25:52.441Z,14.05
2018-12-18T19:28:23.479Z,19.70
2018-12-18T19:30:54.811Z,25.45
2018-12-18T19:33:25.553Z,20.90
2018-12-18T19:36:12.624Z,17.25
2018-12-18T19:39:09.499Z,16.05
2018-12-18T19:44:59.178Z,17.50
2018-12-18T19:47:44.119Z,23.90
2018-12-18T19:50:17.030Z,20.90
2018-12-18T19:53:05.114Z,26.57
2018-12-18T19:55:36.653Z,16.17
2018-12-18T19:58:08.968Z,17.35
2018-12-18T20:00:40.520Z,24.57
2018-12-18T20:03:22.857Z,20.88
2018-12-18T20:05:54.396Z,18.20
2018-12-18T20:08:25.976Z,19.67
2018-12-18T20:10:58.735Z,19.15
2018-12-18T21:32:36.695Z,19.35
2018-12-18T21:35:08.568Z,21.93
2018-12-18T21:37:39.612Z,21.77
2018-12-18T21:40:10.366Z,28.77
2018-12-18T21:42:41.371Z,20.55
2018-12-18T21:54:45.651Z,22.17
2018-12-18T21:57:23.384Z,18.60
2018-12-18T21:59:59.112Z,30.90
2018-12-18T22:02:35.520Z,17.57
2018-12-18T22:05:06.444Z,22.22
2018-12-18T22:07:36.849Z,22.73
2018-12-18T22:10:08.677Z,28.70
2018-12-18T22:12:41.367Z,29.23
2018-12-18T22:15:13.662Z,21.48
2018-12-18T22:17:44.134Z,19.80
2018-12-18T22:22:57.292Z,31.52
2018-12-18T22:28:41.199Z,20.00
2018-12-18T22:31:16.920Z,20.00
2018-12-18T22:36:59.413Z,20.43
2018-12-18T22:46:03.966Z,30.05
2018-12-18T22:48:34.648Z,23.62
2018-12-18T22:51:09.915Z,22.07
2018-12-18T22:53:40.821Z,22.82
2018-12-18T22:56:14.615Z,25.70
2018-12-18T22:58:45.531Z,25.27
2018-12-18T23:01:26.754Z,27.50
2018-12-18T23:03:57.453Z,22.87
2018-12-18T23:06:28.616Z,24.32
2018-12-18T23:09:01.500Z,23.20
2018-12-18T23:11:33.538Z,25.32
2018-12-18T23:14:04.637Z,20.62
2018-12-18T23:16:42.481Z,23.92
2018-12-18T23:19:14.569Z,20.40
2018-12-18T23:21:54.660Z,24.80
2018-12-18T23:24:35.975Z,21.50
2018-12-18T23:27:06.853Z,21.45
2018-12-18T23:29:55.980Z,31.02
2018-12-18T23:32:37.348Z,16.62
2018-12-18T23:35:14.272Z,20.05
2018-12-18T23:37:45.071Z,22.00
2018-12-18T23:40:20.646Z,18.65
2018-12-18T23:42:51.452Z,23.02
2018-12-18T23:48:25.184Z,25.45
2018-12-18T23:50:55.509Z,21.95
2018-12-18T23:53:25.929Z,23.77
2018-12-18T23:55:58.762Z,23.55
2018-12-18T23:58:29.173Z,20.77
